Time;durP1;ratioP1;P1;durP2;ratioP2;P2;SDS_P1;SDS_P2;PMS_P1;PMS_P2;Temp;Humidity;BMP_temperature;BMP_pressure;BME280_temperature;BME280_humidity;BME280_pressure;Samples;Min_cycle;Max_cycle;Signal;HPM_P1;HPM_P2
2023/06/19 00:02:02;;;;;;;7.45;6.65;;;22.70;53.60;;;;;;5029069;28;20041;-65
2023/06/19 00:04:28;;;;;;;7.38;6.68;;;22.70;53.70;;;;;;5033109;28;20115;-65
2023/06/19 00:06:54;;;;;;;7.45;6.57;;;22.70;53.90;;;;;;5034028;28;20047;-65
2023/06/19 00:09:19;;;;;;;8.13;7.32;;;22.70;54.20;;;;;;5025859;28;20030;-66
2023/06/19 00:11:45;;;;;;;10.05;6.93;;;22.70;54.20;;;;;;5024673;28;20032;-65
2023/06/19 00:14:11;;;;;;;6.90;6.22;;;22.70;54.10;;;;;;5030685;28;20543;-65
2023/06/19 00:16:36;;;;;;;7.30;6.60;;;22.70;54.10;;;;;;5030431;28;20041;-65
2023/06/19 00:19:03;;;;;;;7.70;5.90;;;22.60;53.90;;;;;;5030050;28;20041;-65
2023/06/19 00:21:29;;;;;;;14.27;6.68;;;22.70;53.90;;;;;;5032132;28;20040;-65
2023/06/19 00:23:55;;;;;;;9.05;6.72;;;22.70;53.90;;;;;;5032287;28;20045;-66
2023/06/19 00:26:25;;;;;;;13.23;6.68;;;22.70;53.90;;;;;;5032733;28;20029;-66
2023/06/19 00:28:51;;;;;;;7.38;6.63;;;22.70;54.00;;;;;;5032770;28;20037;-66
2023/06/19 00:31:16;;;;;;;7.57;6.35;;;22.70;54.20;;;;;;5033709;28;20045;-66
2023/06/19 00:33:44;;;;;;;7.68;6.90;;;22.70;54.10;;;;;;5034198;28;20030;-65
2023/06/19 00:36:10;;;;;;;7.35;6.57;;;22.70;54.30;;;;;;5032604;28;20029;-66
2023/06/19 00:38:36;;;;;;;9.32;6.75;;;22.60;54.00;;;;;;5033169;28;20060;-66
2023/06/19 00:41:03;;;;;;;10.18;6.88;;;22.60;53.90;;;;;;5032220;28;20044;-66
2023/06/19 00:43:28;;;;;;;9.32;7.18;;;22.60;53.90;;;;;;5034364;28;20527;-66
2023/06/19 00:45:57;;;;;;;7.28;5.93;;;22.50;54.00;;;;;;5033534;28;20061;-66
2023/06/19 00:48:22;;;;;;;7.28;6.30;;;22.50;54.40;;;;;;5030081;28;20056;-66
2023/06/19 00:50:49;;;;;;;6.72;6.13;;;22.50;54.20;;;;;;5029351;28;20037;-66
2023/06/19 00:53:15;;;;;;;7.35;6.65;;;22.50;54.30;;;;;;5030512;28;20343;-65
2023/06/19 00:55:43;;;;;;;7.72;6.88;;;22.50;54.20;;;;;;5031683;28;20400;-66
2023/06/19 00:58:09;;;;;;;7.40;6.63;;;22.50;54.40;;;;;;5031486;28;20059;-66
2023/06/19 01:00:34;;;;;;;7.78;7.05;;;22.50;54.50;;;;;;5030705;28;20041;-66
2023/06/19 01:03:00;;;;;;;8.68;6.28;;;22.50;54.70;;;;;;5028584;28;20096;-65
2023/06/19 01:05:26;;;;;;;7.15;6.50;;;22.60;54.70;;;;;;5036433;28;20034;-66
2023/06/19 01:08:04;;;;;;;7.35;6.65;;;22.60;54.70;;;;;;5036038;28;20041;-66
2023/06/19 01:10:45;;;;;;;8.13;6.72;;;22.50;55.00;;;;;;5034064;28;20037;-66
2023/06/19 01:13:27;;;;;;;7.68;6.97;;;22.50;55.10;;;;;;5036866;28;20283;-65
2023/06/19 01:15:54;;;;;;;7.72;7.00;;;22.60;55.40;;;;;;5035477;28;20045;-66
2023/06/19 01:18:20;;;;;;;7.25;6.60;;;22.50;55.70;;;;;;5034125;28;20125;-65
2023/06/19 01:20:46;;;;;;;9.73;7.00;;;22.50;55.30;;;;;;5034089;28;20055;-66
2023/06/19 01:23:12;;;;;;;7.40;6.70;;;22.60;55.30;;;;;;5038371;28;20524;-66
2023/06/19 01:25:38;;;;;;;7.38;6.68;;;22.50;55.20;;;;;;5038778;28;20037;-66
2023/06/19 01:28:07;;;;;;;7.05;6.40;;;22.50;55.00;;;;;;5038619;28;20338;-65
2023/06/19 01:30:34;;;;;;;7.10;6.40;;;22.40;55.00;;;;;;5039192;28;20036;-66
2023/06/19 01:33:00;;;;;;;7.00;6.40;;;22.50;55.10;;;;;;5034911;28;20416;-66
2023/06/19 01:35:29;;;;;;;8.73;6.68;;;22.40;54.90;;;;;;5036675;28;20076;-65
2023/06/19 01:37:55;;;;;;;7.05;6.38;;;22.50;55.60;;;;;;5034645;28;20033;-66
2023/06/19 01:40:27;;;;;;;7.53;6.80;;;22.40;55.30;;;;;;5036609;28;20576;-66
2023/06/19 01:42:54;;;;;;;7.20;6.50;;;22.40;55.40;;;;;;5034071;28;20519;-66
2023/06/19 01:45:20;;;;;;;7.40;6.70;;;22.50;55.30;;;;;;5037050;28;20519;-66
2023/06/19 01:47:46;;;;;;;7.45;6.80;;;22.40;55.50;;;;;;5034716;28;20038;-65
2023/06/19 01:50:12;;;;;;;8.55;7.15;;;22.40;55.70;;;;;;5035233;28;20033;-66
2023/06/19 01:52:38;;;;;;;7.40;6.70;;;22.40;55.70;;;;;;5034644;28;20037;-66
2023/06/19 01:55:05;;;;;;;7.45;6.65;;;22.40;55.70;;;;;;5036111;28;20045;-66
2023/06/19 01:57:31;;;;;;;7.72;6.93;;;22.40;55.60;;;;;;5033266;28;20034;-66
2023/06/19 01:59:57;;;;;;;7.53;6.82;;;22.40;55.50;;;;;;5033368;28;20621;-65
2023/06/19 02:02:22;;;;;;;7.28;6.57;;;22.40;55.60;;;;;;5030392;28;20057;-65
2023/06/19 02:04:48;;;;;;;7.10;6.40;;;22.40;55.60;;;;;;5033739;28;20675;-66
2023/06/19 02:07:14;;;;;;;7.63;6.80;;;22.40;55.90;;;;;;5032397;28;20025;-65
2023/06/19 02:09:41;;;;;;;6.60;5.97;;;22.40;55.90;;;;;;5033018;28;20040;-65
2023/06/19 02:12:07;;;;;;;6.70;6.13;;;22.40;55.80;;;;;;5028799;28;20531;-66
2023/06/19 02:14:33;;;;;;;6.82;6.20;;;22.40;55.40;;;;;;5031128;28;21776;-66
2023/06/19 02:16:58;;;;;;;5.93;5.43;;;22.40;55.80;;;;;;5031573;28;20037;-66
2023/06/19 02:19:24;;;;;;;6.50;5.90;;;22.40;55.70;;;;;;5032082;28;20116;-66
2023/06/19 02:21:49;;;;;;;7.20;6.30;;;22.40;55.50;;;;;;5031037;28;20044;-66
2023/06/19 02:24:15;;;;;;;6.65;5.75;;;22.40;55.60;;;;;;5031796;28;20033;-66
2023/06/19 02:26:41;;;;;;;6.80;6.10;;;22.40;55.50;;;;;;5034713;28;20124;-66
2023/06/19 02:29:06;;;;;;;7.10;5.50;;;22.40;55.60;;;;;;5032679;28;20044;-66
2023/06/19 02:31:32;;;;;;;6.80;5.97;;;22.40;55.50;;;;;;5034006;28;20040;-66
2023/06/19 02:33:57;;;;;;;6.65;6.05;;;22.50;55.60;;;;;;5032887;28;20475;-66
2023/06/19 02:36:23;;;;;;;7.22;6.53;;;22.50;55.60;;;;;;5037591;28;20056;-66
2023/06/19 02:38:49;;;;;;;7.40;6.70;;;22.40;55.80;;;;;;5036694;28;20060;-65
2023/06/19 02:41:15;;;;;;;7.72;6.90;;;22.40;55.80;;;;;;5037500;28;20034;-66
2023/06/19 02:43:45;;;;;;;7.75;7.05;;;22.40;55.90;;;;;;5036747;28;20021;-66
2023/06/19 02:46:11;;;;;;;8.07;7.28;;;22.30;56.00;;;;;;5033038;28;20029;-65
2023/06/19 02:48:36;;;;;;;8.00;7.00;;;22.30;56.00;;;;;;5031716;28;20097;-65
2023/06/19 02:51:02;;;;;;;8.50;7.70;;;22.30;56.20;;;;;;5031710;28;20678;-66
2023/06/19 02:53:28;;;;;;;7.85;7.15;;;22.20;56.30;;;;;;5032406;28;20114;-65
2023/06/19 02:55:53;;;;;;;8.00;7.18;;;22.20;56.40;;;;;;5031800;28;20496;-65
2023/06/19 02:58:19;;;;;;;7.88;7.07;;;22.20;56.50;;;;;;5033966;28;20047;-66
2023/06/19 03:00:46;;;;;;;8.85;7.47;;;22.20;56.50;;;;;;5028401;28;20129;-65
2023/06/19 03:03:12;;;;;;;8.40;6.78;;;22.10;56.60;;;;;;5031762;28;20374;-66
2023/06/19 03:05:37;;;;;;;7.55;6.85;;;22.10;56.60;;;;;;5030049;28;20124;-65
2023/06/19 03:08:03;;;;;;;7.40;6.70;;;22.10;56.70;;;;;;5030656;28;20037;-66
2023/06/19 03:10:29;;;;;;;7.10;6.50;;;22.10;56.90;;;;;;5033936;28;20033;-66
2023/06/19 03:12:54;;;;;;;7.43;6.70;;;22.10;57.00;;;;;;5029100;28;20455;-65
2023/06/19 03:15:20;;;;;;;6.90;6.30;;;22.10;57.00;;;;;;5027824;28;20081;-66
2023/06/19 03:17:46;;;;;;;7.30;6.60;;;22.00;57.00;;;;;;5031476;28;20029;-65
2023/06/19 03:20:12;;;;;;;6.72;6.07;;;22.00;57.00;;;;;;5032042;28;20025;-66
2023/06/19 03:22:41;;;;;;;6.28;5.78;;;22.00;57.20;;;;;;5030836;28;20033;-66
2023/06/19 03:25:07;;;;;;;7.18;5.88;;;21.90;57.30;;;;;;5032489;28;20038;-65
2023/06/19 03:27:33;;;;;;;6.75;6.13;;;21.90;57.30;;;;;;5023315;28;20048;-66
2023/06/19 03:29:59;;;;;;;6.68;6.03;;;21.90;57.40;;;;;;5026898;28;20057;-66
2023/06/19 03:32:25;;;;;;;6.20;5.70;;;21.90;57.40;;;;;;5029732;28;20067;-66
2023/06/19 03:34:50;;;;;;;6.60;5.95;;;21.90;57.50;;;;;;5026329;28;20037;-66
2023/06/19 03:37:16;;;;;;;6.68;6.13;;;21.90;57.60;;;;;;5024302;28;20149;-65
2023/06/19 03:39:42;;;;;;;6.10;5.57;;;21.90;57.60;;;;;;5027711;28;20025;-66
2023/06/19 03:42:08;;;;;;;6.38;5.85;;;21.90;57.50;;;;;;5029759;28;20035;-65
2023/06/19 03:44:33;;;;;;;6.63;6.03;;;21.90;57.50;;;;;;5030839;28;20563;-65
2023/06/19 03:46:59;;;;;;;6.13;5.57;;;21.90;57.60;;;;;;5028035;28;20087;-66
2023/06/19 03:49:25;;;;;;;6.68;5.85;;;22.00;57.70;;;;;;5026515;28;20025;-66
2023/06/19 03:51:51;;;;;;;5.93;5.43;;;22.00;58.40;;;;;;5026437;28;20512;-66
2023/06/19 03:54:17;;;;;;;7.22;5.88;;;21.90;57.70;;;;;;5027803;28;20258;-66
2023/06/19 03:56:42;;;;;;;6.75;5.80;;;21.90;58.50;;;;;;5023030;28;20052;-65
2023/06/19 03:59:09;;;;;;;6.07;5.53;;;21.90;57.90;;;;;;5025423;28;20128;-65
2023/06/19 04:01:34;;;;;;;6.25;5.68;;;22.00;57.90;;;;;;5027114;28;20477;-65
2023/06/19 04:04:00;;;;;;;7.18;5.72;;;21.90;57.90;;;;;;5026751;28;20378;-66
2023/06/19 04:06:25;;;;;;;5.32;4.85;;;22.00;57.90;;;;;;5027770;28;20044;-65
2023/06/19 04:08:52;;;;;;;5.63;5.15;;;22.00;58.00;;;;;;5030547;28;20068;-66
2023/06/19 04:11:17;;;;;;;5.80;5.20;;;22.10;57.90;;;;;;5025327;28;20104;-65
2023/06/19 04:13:43;;;;;;;6.90;5.50;;;22.10;58.00;;;;;;5029469;28;20103;-66
2023/06/19 04:16:09;;;;;;;5.68;5.15;;;22.10;57.90;;;;;;5031125;28;20033;-66
2023/06/19 04:18:34;;;;;;;6.78;5.22;;;22.10;58.00;;;;;;5024840;28;20045;-66
2023/06/19 04:21:00;;;;;;;6.68;5.88;;;22.10;57.80;;;;;;5023452;28;20026;-66
2023/06/19 04:23:26;;;;;;;6.28;5.53;;;22.10;57.70;;;;;;5029826;28;20410;-65
2023/06/19 04:25:52;;;;;;;6.47;5.88;;;22.20;57.70;;;;;;5024134;28;20076;-66
2023/06/19 04:28:17;;;;;;;6.00;5.43;;;22.10;57.60;;;;;;5028361;28;20025;-65
2023/06/19 04:30:43;;;;;;;6.70;6.00;;;22.20;57.60;;;;;;5027636;28;20590;-66
2023/06/19 04:33:08;;;;;;;6.20;5.70;;;22.20;57.70;;;;;;5023651;28;20040;-66
2023/06/19 04:35:39;;;;;;;7.00;6.30;;;22.20;57.60;;;;;;5025360;28;20044;-65
2023/06/19 04:38:06;;;;;;;6.78;6.05;;;22.20;57.70;;;;;;5028383;28;20049;-65
2023/06/19 04:40:32;;;;;;;6.53;5.93;;;22.20;57.70;;;;;;5037028;28;20026;-66
2023/06/19 04:42:57;;;;;;;8.43;6.25;;;22.20;57.80;;;;;;5037217;28;20033;-65
2023/06/19 04:45:23;;;;;;;6.80;6.10;;;22.30;57.80;;;;;;5034866;28;20060;-65
2023/06/19 04:47:49;;;;;;;9.25;5.93;;;22.30;57.80;;;;;;5038386;28;20042;-65
2023/06/19 04:50:16;;;;;;;6.78;5.80;;;22.30;57.80;;;;;;5036017;28;20049;-65
2023/06/19 04:52:41;;;;;;;6.10;5.55;;;22.30;57.90;;;;;;5036372;28;20363;-65
2023/06/19 04:55:10;;;;;;;6.47;5.88;;;22.30;57.90;;;;;;5035598;28;20479;-65
2023/06/19 04:57:37;;;;;;;5.63;5.22;;;22.30;58.00;;;;;;5037247;28;20053;-65
2023/06/19 05:00:06;;;;;;;8.23;5.70;;;22.30;58.00;;;;;;5037110;28;20033;-65
2023/06/19 05:02:33;;;;;;;6.03;5.47;;;22.40;58.00;;;;;;5035311;28;20053;-65
2023/06/19 05:05:02;;;;;;;6.43;5.40;;;22.40;58.00;;;;;;5036953;28;20037;-65
2023/06/19 05:07:32;;;;;;;6.28;5.68;;;22.40;58.00;;;;;;5037362;28;20037;-65
2023/06/19 05:09:58;;;;;;;6.03;5.53;;;22.40;58.10;;;;;;5035322;28;20052;-65
2023/06/19 05:12:24;;;;;;;6.20;5.60;;;22.40;58.10;;;;;;5033762;28;20033;-65
2023/06/19 05:14:49;;;;;;;5.97;5.38;;;22.40;58.20;;;;;;5034978;28;20671;-65
2023/06/19 05:17:15;;;;;;;6.22;5.25;;;22.40;58.10;;;;;;5036043;28;20045;-65
2023/06/19 05:19:41;;;;;;;5.65;5.15;;;22.50;58.10;;;;;;5036352;28;20029;-65
2023/06/19 05:22:06;;;;;;;5.55;5.13;;;22.40;58.10;;;;;;5033811;28;20040;-65
2023/06/19 05:24:32;;;;;;;6.70;5.53;;;22.40;58.80;;;;;;5036008;28;20039;-65
2023/06/19 05:26:58;;;;;;;5.93;5.43;;;22.50;58.20;;;;;;5034764;28;20036;-65
2023/06/19 05:29:24;;;;;;;6.45;5.65;;;22.50;58.20;;;;;;5036928;28;20029;-65
2023/06/19 05:31:50;;;;;;;9.85;5.57;;;22.50;58.10;;;;;;5034091;28;20508;-65
2023/06/19 05:34:15;;;;;;;6.07;5.30;;;22.50;58.30;;;;;;5036864;28;20041;-65
2023/06/19 05:36:41;;;;;;;5.93;5.32;;;22.50;58.20;;;;;;5036877;28;20041;-65
2023/06/19 05:39:07;;;;;;;8.00;5.30;;;22.50;58.30;;;;;;5034070;28;20295;-65
2023/06/19 05:41:32;;;;;;;6.78;5.07;;;22.50;58.20;;;;;;5038121;28;20029;-65
2023/06/19 05:43:58;;;;;;;12.20;5.25;;;22.50;58.20;;;;;;5038290;28;20495;-65
2023/06/19 05:46:24;;;;;;;7.20;5.05;;;22.50;58.20;;;;;;5039221;28;20064;-65
2023/06/19 05:48:49;;;;;;;5.60;5.10;;;22.50;58.20;;;;;;5037085;28;20044;-65
2023/06/19 05:51:15;;;;;;;7.53;5.28;;;22.50;58.30;;;;;;5037100;28;20135;-65
2023/06/19 05:53:40;;;;;;;7.82;5.15;;;22.50;58.30;;;;;;5038169;28;20037;-65
2023/06/19 05:56:06;;;;;;;6.07;5.07;;;22.60;58.40;;;;;;5035203;28;20037;-65
2023/06/19 05:58:32;;;;;;;6.30;5.28;;;22.60;58.40;;;;;;5036083;28;20033;-65
2023/06/19 06:00:58;;;;;;;8.48;5.00;;;22.60;58.50;;;;;;5036905;28;20044;-65
2023/06/19 06:03:25;;;;;;;5.80;4.13;;;22.70;58.60;;;;;;5034126;28;20029;-65
2023/06/19 06:05:51;;;;;;;8.45;4.25;;;22.70;58.60;;;;;;5034776;28;20064;-65
2023/06/19 06:08:16;;;;;;;4.78;4.32;;;22.70;58.60;;;;;;5035163;28;20131;-65
2023/06/19 06:10:42;;;;;;;6.25;4.28;;;22.80;58.70;;;;;;5031840;28;20026;-65
2023/06/19 06:13:07;;;;;;;8.98;4.90;;;22.90;58.70;;;;;;5034367;28;20044;-65
2023/06/19 06:15:33;;;;;;;9.93;4.28;;;22.90;58.60;;;;;;5034696;28;20045;-65
2023/06/19 06:17:59;;;;;;;5.38;4.40;;;23.00;58.70;;;;;;5036297;28;20033;-65
2023/06/19 06:20:24;;;;;;;5.95;4.80;;;23.00;58.80;;;;;;5036267;28;20068;-65
2023/06/19 06:22:50;;;;;;;4.90;4.47;;;23.10;58.80;;;;;;5033698;28;20064;-66
2023/06/19 06:25:16;;;;;;;5.10;4.68;;;23.20;58.70;;;;;;5032952;28;20135;-64
2023/06/19 06:27:42;;;;;;;10.77;5.30;;;23.30;58.60;;;;;;5034835;28;20116;-65
2023/06/19 06:30:08;;;;;;;5.85;5.30;;;23.30;59.20;;;;;;5035313;28;20056;-64
2023/06/19 06:32:34;;;;;;;5.47;5.05;;;23.40;58.60;;;;;;5033930;28;20056;-65
2023/06/19 06:34:59;;;;;;;5.50;5.00;;;23.40;58.60;;;;;;5034639;28;20084;-65
2023/06/19 06:37:25;;;;;;;6.03;5.45;;;23.50;58.50;;;;;;5037321;28;20147;-65
2023/06/19 06:39:51;;;;;;;5.93;5.32;;;23.50;58.50;;;;;;5036494;28;20041;-65
2023/06/19 06:42:18;;;;;;;7.55;5.15;;;23.50;58.30;;;;;;5037170;28;20435;-65
2023/06/19 06:44:44;;;;;;;6.25;5.05;;;23.60;58.40;;;;;;5036331;28;20068;-65
2023/06/19 06:47:09;;;;;;;5.15;4.75;;;23.60;58.40;;;;;;5036279;28;20033;-65
2023/06/19 06:49:36;;;;;;;9.48;5.15;;;23.60;58.50;;;;;;5037069;28;20036;-65
2023/06/19 06:52:03;;;;;;;7.85;4.60;;;23.60;58.40;;;;;;5031851;28;20041;-65
2023/06/19 06:54:29;;;;;;;6.28;4.43;;;23.60;58.50;;;;;;5031635;28;20898;-65
2023/06/19 06:56:58;;;;;;;6.18;4.53;;;23.60;58.50;;;;;;5033214;28;20060;-65
2023/06/19 06:59:26;;;;;;;4.90;4.45;;;23.60;58.60;;;;;;5033782;28;20053;-65
2023/06/19 07:01:56;;;;;;;5.13;4.57;;;23.60;58.50;;;;;;5032153;28;20034;-65
2023/06/19 07:04:22;;;;;;;4.45;4.05;;;23.60;58.50;;;;;;5035294;28;20041;-65
2023/06/19 07:06:47;;;;;;;8.48;4.38;;;23.60;58.50;;;;;;5031955;28;20037;-65
2023/06/19 07:09:15;;;;;;;5.47;4.40;;;23.60;58.50;;;;;;5035377;28;20547;-65
2023/06/19 07:11:40;;;;;;;4.10;3.80;;;23.60;58.60;;;;;;5032932;28;20126;-65
2023/06/19 07:14:06;;;;;;;5.20;3.88;;;23.60;58.70;;;;;;5031496;28;20075;-64
2023/06/19 07:16:31;;;;;;;4.80;3.85;;;23.60;58.70;;;;;;5034467;28;20500;-65
2023/06/19 07:18:57;;;;;;;5.10;4.30;;;23.60;58.70;;;;;;5034884;28;20037;-64
2023/06/19 07:21:23;;;;;;;4.72;4.20;;;23.70;58.90;;;;;;5033649;28;20029;-64
2023/06/19 07:23:49;;;;;;;6.13;3.95;;;23.70;58.90;;;;;;5035739;28;20037;-65
2023/06/19 07:26:15;;;;;;;4.43;4.03;;;23.80;58.90;;;;;;5033035;28;20029;-65
2023/06/19 07:28:41;;;;;;;6.13;4.13;;;23.80;58.90;;;;;;5034578;28;20041;-65
2023/06/19 07:31:07;;;;;;;4.00;3.65;;;23.80;58.90;;;;;;5032414;28;20442;-65
2023/06/19 07:33:33;;;;;;;3.75;3.45;;;23.80;58.80;;;;;;5034456;28;20029;-65
2023/06/19 07:35:59;;;;;;;6.55;3.80;;;23.90;58.80;;;;;;5033277;28;20037;-65
2023/06/19 07:38:24;;;;;;;4.45;3.92;;;23.90;58.80;;;;;;5033928;28;20036;-65
2023/06/19 07:40:50;;;;;;;4.57;3.67;;;24.00;58.70;;;;;;5033482;28;20120;-65
2023/06/19 07:43:17;;;;;;;3.80;3.20;;;24.00;58.50;;;;;;5030521;28;20113;-65
2023/06/19 07:45:42;;;;;;;3.40;3.20;;;24.00;58.20;;;;;;5034337;28;20083;-65
2023/06/19 07:48:08;;;;;;;3.80;3.50;;;24.00;58.10;;;;;;5032444;28;20037;-65
2023/06/19 07:50:34;;;;;;;3.47;3.20;;;24.00;58.10;;;;;;5032662;28;20032;-65
2023/06/19 07:52:59;;;;;;;3.67;3.15;;;24.00;58.20;;;;;;5032216;28;20045;-65
2023/06/19 07:55:25;;;;;;;5.32;3.22;;;24.00;58.40;;;;;;5033774;28;20084;-65
2023/06/19 07:57:52;;;;;;;3.25;2.95;;;24.10;58.40;;;;;;5034577;28;20044;-65
2023/06/19 08:00:18;;;;;;;3.67;3.38;;;24.10;58.30;;;;;;5034240;28;20116;-65
2023/06/19 08:02:43;;;;;;;3.40;3.20;;;24.10;58.30;;;;;;5025858;28;20101;-65
2023/06/19 08:05:10;;;;;;;3.28;3.00;;;24.10;58.40;;;;;;5032781;28;20761;-65
2023/06/19 08:07:36;;;;;;;5.18;3.85;;;24.20;58.40;;;;;;5035397;28;20049;-65
2023/06/19 08:10:03;;;;;;;3.75;3.45;;;24.20;58.40;;;;;;5034275;28;20033;-65
2023/06/19 08:12:29;;;;;;;3.80;3.45;;;24.20;58.40;;;;;;5028384;28;20033;-65
2023/06/19 08:14:55;;;;;;;3.15;2.95;;;24.20;58.40;;;;;;5033172;28;20052;-65
2023/06/19 08:17:20;;;;;;;5.18;3.30;;;24.20;58.50;;;;;;5032786;28;20029;-65
2023/06/19 08:19:46;;;;;;;5.70;3.55;;;24.20;58.50;;;;;;5035070;28;20029;-65
2023/06/19 08:22:12;;;;;;;3.63;3.15;;;24.30;58.60;;;;;;5032343;28;20396;-65
2023/06/19 08:24:39;;;;;;;4.05;3.20;;;24.30;58.60;;;;;;5033136;28;20053;-65
2023/06/19 08:27:05;;;;;;;3.70;3.38;;;24.30;58.60;;;;;;5031294;28;20068;-65
2023/06/19 08:29:31;;;;;;;4.20;3.80;;;24.30;58.60;;;;;;5034618;28;20045;-65
2023/06/19 08:31:56;;;;;;;3.33;2.90;;;24.40;58.70;;;;;;5033153;28;20501;-65
2023/06/19 08:34:22;;;;;;;3.55;3.03;;;24.40;58.70;;;;;;5034159;28;20080;-65
2023/06/19 08:36:48;;;;;;;3.85;3.22;;;24.40;58.80;;;;;;5035248;28;20041;-65
2023/06/19 08:39:13;;;;;;;4.25;3.78;;;24.50;58.80;;;;;;5036874;28;20040;-65
2023/06/19 08:41:41;;;;;;;3.95;3.25;;;24.50;58.70;;;;;;5036166;28;20029;-65
2023/06/19 08:44:07;;;;;;;6.53;3.67;;;24.60;58.90;;;;;;5035971;28;20065;-65
2023/06/19 08:46:34;;;;;;;5.25;3.42;;;24.70;58.90;;;;;;5034925;28;20525;-65
2023/06/19 08:49:00;;;;;;;6.88;3.15;;;24.80;58.90;;;;;;5034143;28;20072;-64
2023/06/19 08:51:28;;;;;;;3.53;3.22;;;25.00;58.90;;;;;;5034161;28;20568;-65
2023/06/19 08:54:04;;;;;;;3.70;3.40;;;25.00;58.60;;;;;;5033389;28;20557;-64
2023/06/19 08:56:37;;;;;;;3.65;3.35;;;25.10;58.40;;;;;;5032193;28;20033;-65
2023/06/19 08:59:17;;;;;;;4.32;3.25;;;25.20;58.20;;;;;;5032863;28;20044;-64
2023/06/19 09:01:53;;;;;;;7.40;3.53;;;25.30;58.10;;;;;;5034464;28;20117;-66
2023/06/19 09:04:21;;;;;;;3.78;3.47;;;25.30;58.10;;;;;;5033075;28;20068;-65
2023/06/19 09:06:56;;;;;;;4.15;3.25;;;25.40;57.80;;;;;;5033999;28;20517;-65
2023/06/19 09:09:25;;;;;;;4.47;3.70;;;25.50;57.70;;;;;;5033782;28;20064;-64
2023/06/19 09:12:00;;;;;;;3.85;3.55;;;25.60;58.20;;;;;;5030726;28;20033;-65
2023/06/19 09:14:39;;;;;;;3.97;3.53;;;25.60;57.40;;;;;;5032641;28;20036;-64
2023/06/19 09:17:19;;;;;;;3.65;3.35;;;25.70;57.60;;;;;;5031615;28;20056;-64
2023/06/19 09:19:48;;;;;;;4.47;2.97;;;25.90;57.40;;;;;;5033411;28;20036;-65
2023/06/19 09:22:18;;;;;;;4.38;3.33;;;26.00;57.50;;;;;;5033211;28;20409;-65
2023/06/19 09:24:44;;;;;;;3.10;2.80;;;26.10;57.20;;;;;;5030757;28;20038;-64
2023/06/19 09:27:19;;;;;;;9.32;3.25;;;26.30;56.70;;;;;;5037618;28;20059;-65
2023/06/19 09:29:50;;;;;;;6.75;3.38;;;26.40;56.30;;;;;;5037193;28;20033;-65
2023/06/19 09:32:19;;;;;;;4.85;3.40;;;26.50;56.30;;;;;;5034038;28;20083;-64
2023/06/19 09:34:45;;;;;;;11.82;3.45;;;26.70;55.80;;;;;;5037169;28;20045;-65
2023/06/19 09:37:11;;;;;;;3.30;3.00;;;26.70;55.70;;;;;;5036509;28;20405;-65
2023/06/19 09:39:37;;;;;;;4.85;3.63;;;26.80;55.90;;;;;;5036223;28;20033;-65
2023/06/19 09:42:06;;;;;;;3.63;2.90;;;26.90;55.50;;;;;;5036011;28;20041;-63
2023/06/19 09:44:34;;;;;;;2.70;2.50;;;27.00;54.90;;;;;;5035965;28;20033;-65
2023/06/19 09:47:04;;;;;;;2.92;2.72;;;27.20;54.40;;;;;;5036159;28;20033;-64
2023/06/19 09:49:34;;;;;;;2.75;2.55;;;27.30;54.30;;;;;;5037374;28;20090;-65
2023/06/19 09:51:59;;;;;;;5.05;2.55;;;27.40;53.80;;;;;;5034708;28;20127;-65
2023/06/19 09:54:26;;;;;;;2.60;2.35;;;27.50;53.50;;;;;;5037204;28;20121;-65
2023/06/19 09:56:55;;;;;;;4.22;2.47;;;27.60;53.50;;;;;;5036537;28;20049;-66
2023/06/19 09:59:22;;;;;;;2.55;2.30;;;27.70;53.10;;;;;;5036112;28;20085;-65
2023/06/19 10:01:49;;;;;;;4.18;2.40;;;27.80;52.90;;;;;;5037657;28;20071;-65
2023/06/19 10:04:16;;;;;;;2.40;2.20;;;28.00;52.80;;;;;;5035956;28;20068;-66
2023/06/19 10:06:46;;;;;;;2.30;2.10;;;28.10;52.00;;;;;;5037190;28;20029;-65
2023/06/19 10:09:13;;;;;;;2.22;2.05;;;28.30;51.20;;;;;;5035494;28;20377;-65
2023/06/19 10:11:51;;;;;;;3.33;2.03;;;28.40;50.90;;;;;;5033269;28;20025;-65
2023/06/19 10:14:18;;;;;;;2.28;1.95;;;28.50;49.60;;;;;;5036468;28;20095;-65
2023/06/19 10:16:44;;;;;;;2.10;2.00;;;28.70;50.10;;;;;;5033613;28;20091;-64
2023/06/19 10:19:20;;;;;;;2.30;2.20;;;28.80;49.70;;;;;;5035594;28;20498;-65
2023/06/19 10:21:50;;;;;;;2.50;2.38;;;28.90;48.80;;;;;;5035948;28;20075;-65
2023/06/19 10:24:19;;;;;;;2.75;2.40;;;29.00;48.70;;;;;;5036164;28;20532;-65
2023/06/19 10:26:59;;;;;;;2.92;2.72;;;29.20;47.80;;;;;;5034515;28;20046;-66
2023/06/19 10:29:26;;;;;;;4.10;2.78;;;29.20;46.50;;;;;;5036998;28;20045;-65
2023/06/19 10:31:52;;;;;;;3.97;2.50;;;29.20;47.80;;;;;;5033662;28;20037;-66
2023/06/19 10:34:18;;;;;;;2.83;2.63;;;29.20;48.10;;;;;;5035608;28;20102;-66
2023/06/19 10:36:44;;;;;;;4.32;2.70;;;29.30;48.20;;;;;;5036714;28;20034;-65
2023/06/19 10:39:10;;;;;;;3.17;2.90;;;29.30;48.10;;;;;;5038078;28;20029;-65
2023/06/19 10:41:39;;;;;;;2.88;2.67;;;29.40;48.00;;;;;;5038728;28;20052;-65
2023/06/19 10:44:12;;;;;;;3.22;3.03;;;29.50;47.80;;;;;;5037766;28;20033;-65
2023/06/19 10:46:38;;;;;;;3.25;3.03;;;29.60;47.70;;;;;;5034778;28;20040;-66
2023/06/19 10:49:07;;;;;;;6.85;3.13;;;29.70;47.30;;;;;;5034298;28;20128;-65
2023/06/19 10:51:44;;;;;;;3.60;3.30;;;29.80;47.60;;;;;;5035189;28;20037;-65
2023/06/19 10:54:10;;;;;;;4.03;3.33;;;29.90;46.60;;;;;;5033859;28;20112;-64
2023/06/19 10:56:36;;;;;;;3.38;3.08;;;30.00;46.70;;;;;;5034591;28;20065;-65
2023/06/19 10:59:09;;;;;;;3.38;3.10;;;30.10;46.10;;;;;;5035508;28;20029;-65
2023/06/19 11:01:38;;;;;;;3.72;2.92;;;30.10;46.00;;;;;;5035680;28;20033;-65
2023/06/19 11:04:11;;;;;;;3.50;3.25;;;30.20;46.00;;;;;;5034436;28;20033;-64
2023/06/19 11:06:38;;;;;;;3.97;3.17;;;30.30;45.50;;;;;;5036875;28;20038;-65
2023/06/19 11:09:05;;;;;;;3.15;2.92;;;30.30;45.40;;;;;;5037503;28;20033;-65
2023/06/19 11:11:45;;;;;;;3.45;3.15;;;30.40;45.50;;;;;;5033862;28;20102;-64
2023/06/19 11:14:12;;;;;;;3.35;3.05;;;30.40;45.30;;;;;;5035670;28;20037;-65
2023/06/19 11:16:41;;;;;;;3.58;3.28;;;30.50;45.20;;;;;;5037673;28;20090;-65
2023/06/19 11:19:09;;;;;;;3.53;3.33;;;30.60;44.20;;;;;;5035011;28;20049;-65
2023/06/19 11:21:39;;;;;;;3.78;3.53;;;30.60;44.40;;;;;;5035064;28;20084;-65
2023/06/19 11:24:14;;;;;;;3.35;3.08;;;30.70;44.10;;;;;;5036118;28;20045;-64
2023/06/19 11:26:43;;;;;;;3.30;3.10;;;30.70;43.80;;;;;;5032703;28;20038;-65
2023/06/19 11:29:22;;;;;;;4.18;3.30;;;30.80;44.20;;;;;;5033875;28;20063;-65
2023/06/19 11:31:48;;;;;;;5.57;3.20;;;30.80;43.60;;;;;;5031657;28;20047;-65
2023/06/19 11:34:15;;;;;;;3.45;3.22;;;30.80;43.50;;;;;;5033698;28;20040;-65
2023/06/19 11:36:42;;;;;;;5.95;3.28;;;30.80;43.00;;;;;;5035732;28;20029;-65
2023/06/19 11:39:15;;;;;;;3.55;3.35;;;30.80;43.10;;;;;;5034373;28;20346;-65
2023/06/19 11:41:44;;;;;;;4.10;3.42;;;30.80;42.90;;;;;;5034188;28;20091;-65
2023/06/19 11:44:10;;;;;;;3.45;3.20;;;30.80;43.10;;;;;;5034458;28;20034;-65
2023/06/19 11:46:36;;;;;;;3.65;3.33;;;30.80;43.00;;;;;;5033467;28;20704;-65
2023/06/19 11:49:16;;;;;;;4.43;3.20;;;30.80;43.00;;;;;;5033471;28;20037;-65
2023/06/19 11:51:42;;;;;;;3.70;3.40;;;30.80;42.90;;;;;;5033096;28;20053;-65
2023/06/19 11:54:09;;;;;;;3.45;3.20;;;30.80;43.40;;;;;;5035502;28;20045;-65
2023/06/19 11:56:39;;;;;;;3.50;3.30;;;30.80;43.30;;;;;;5034238;28;20084;-66
2023/06/19 11:59:05;;;;;;;3.72;3.42;;;30.90;42.90;;;;;;5033820;28;20037;-65
2023/06/19 12:01:35;;;;;;;3.42;3.13;;;30.90;42.90;;;;;;5033532;28;20217;-65
2023/06/19 12:04:01;;;;;;;3.70;3.47;;;30.90;42.60;;;;;;5031283;28;20718;-65
2023/06/19 12:06:28;;;;;;;3.53;3.33;;;30.90;43.00;;;;;;5033836;28;20107;-66
2023/06/19 12:08:53;;;;;;;3.67;3.38;;;30.90;42.90;;;;;;5033392;28;20041;-65
2023/06/19 12:11:19;;;;;;;4.13;3.42;;;30.90;42.80;;;;;;5031931;28;20400;-65
2023/06/19 12:13:45;;;;;;;3.22;3.03;;;30.90;42.70;;;;;;5033388;28;20501;-65
2023/06/19 12:16:11;;;;;;;5.30;3.40;;;30.90;42.50;;;;;;5034128;28;20043;-65
2023/06/19 12:18:37;;;;;;;3.22;3.03;;;30.90;41.90;;;;;;5032991;28;20112;-65
2023/06/19 12:21:03;;;;;;;3.90;3.15;;;30.90;42.40;;;;;;5033195;28;20120;-64
2023/06/19 12:23:29;;;;;;;3.55;3.28;;;30.90;42.60;;;;;;5032103;28;20504;-65
2023/06/19 12:25:55;;;;;;;3.53;3.03;;;30.90;42.20;;;;;;5030609;28;20098;-65
2023/06/19 12:28:21;;;;;;;3.40;3.20;;;30.90;42.10;;;;;;5035304;28;20042;-65
2023/06/19 12:30:50;;;;;;;3.03;2.83;;;30.90;41.80;;;;;;5033734;28;20048;-65
2023/06/19 12:33:17;;;;;;;3.50;3.20;;;30.90;42.00;;;;;;5033111;28;20037;-65
2023/06/19 12:35:43;;;;;;;3.70;3.40;;;30.90;41.90;;;;;;5035905;28;20029;-66
2023/06/19 12:38:09;;;;;;;3.67;3.22;;;30.90;41.80;;;;;;5035805;28;20090;-65
2023/06/19 12:40:36;;;;;;;3.20;2.92;;;30.90;42.10;;;;;;5035835;28;20029;-65
2023/06/19 12:43:02;;;;;;;3.53;3.08;;;31.00;41.70;;;;;;5035631;28;20406;-65
2023/06/19 12:45:28;;;;;;;3.45;3.15;;;31.00;41.80;;;;;;5036688;28;20035;-66